Pagrindinis puslapis
METAR-TAF:

METAR-TAF

Oro uostai :

Sarbriukenas, Vokietija

platuma: 49-13N, ilguma: 007-07E, Aukštis: 322 m

Dabartinis oras

Ataskaita buvo paskelbta 34 minutes, ne 20:50 UTC
Vėjas 8 kt iš Rytų/Šiaurės Rytų
Temperatūra 11°C
Drėgmė 54%
Slėgis 1023 hPa
Matomumas 10 km arba daugiau
nėra debesų žemiau 1500 m ir nėra kamuolinių lietaus debesų

METAR: EDDR 202050Z 06008KT CAVOK 11/02 Q1023

Laikas: 23:24 (21:24 UTC)

Prognozė

Ataskaita buvo paskelbta 4 valandos ir 24 minutes, ne 17:00 UTC
Prognozė galioja nuo 20 metu 18 UTC su 21 metu 18 UTC
Vėjas 8 kt iš Rytų/Šiaurės Rytų
Matomumas 10 km arba daugiau
nėra debesų žemiau 1500 m ir nėra kamuolinių lietaus debesų

TAF: EDDR 201700Z 2018/2118 07008KT CAVOK

Orai ataskaitas ir orų prognozės (METAR, TAF).

turimą stotys yra geltonos ir raudonos taškus žemėlapyje.

Perkelti pele per norėdami pamatyti stoties vardą.

Tada spustelėkite, norėdami matyti oro stebėjimo ir prognozės.

Norėdami pakeisti žemėlapį: spustelėkite ant žalios mygtukų su juodo kryžiaus žemyn,; žalią mygtuką su brūkšneliu, jei norite nutolinti; arba žalių rodyklių gretimoms žemėlapius.


METAR-TAF: